createdAt,value
2022-11-05T00:00:01.605Z,100330.84
2022-11-05T00:02:27.882Z,100335.66
2022-11-05T00:04:54.192Z,100341.84
2022-11-05T00:07:20.481Z,100349.66
2022-11-05T00:09:47.104Z,100346.41
2022-11-05T00:12:13.405Z,100350.72
2022-11-05T00:14:39.708Z,100355.06
2022-11-05T00:17:05.987Z,100356.13
2022-11-05T00:19:32.324Z,100357.75
2022-11-05T00:21:58.614Z,100362.31
2022-11-05T00:24:24.891Z,100361.25
2022-11-05T00:26:51.161Z,100363.34
2022-11-05T00:29:17.608Z,100366.88
2022-11-05T00:31:43.948Z,100374.72
2022-11-05T00:34:10.493Z,100376.81
2022-11-05T00:36:36.788Z,100380.78
2022-11-05T00:39:03.106Z,100387.84
2022-11-05T00:41:29.485Z,100385.13
2022-11-05T00:43:55.875Z,100384.31
2022-11-05T00:46:22.180Z,100382.44
2022-11-05T00:48:48.535Z,100388.88
2022-11-05T00:51:14.904Z,100397.28
2022-11-05T00:53:41.312Z,100394.59
2022-11-05T00:56:07.570Z,100396.94
2022-11-05T00:58:33.864Z,100401.00
2022-11-05T01:01:00.148Z,100403.69
2022-11-05T01:03:26.483Z,100397.53
2022-11-05T01:05:52.880Z,100413.06
2022-11-05T01:08:19.446Z,100405.25
2022-11-05T01:10:45.990Z,100414.13
2022-11-05T01:13:13.361Z,100404.44
2022-11-05T01:15:39.930Z,100412.03
2022-11-05T01:18:06.243Z,100419.50
2022-11-05T01:20:32.516Z,100418.94
2022-11-05T01:22:58.810Z,100423.25
2022-11-05T01:25:25.128Z,100417.06
2022-11-05T01:27:51.515Z,100418.72
2022-11-05T01:30:17.806Z,100424.88
2022-11-05T01:32:44.178Z,100426.50
2022-11-05T01:35:10.608Z,100424.31
2022-11-05T01:37:36.934Z,100433.44
2022-11-05T01:40:03.266Z,100430.50
2022-11-05T01:42:30.292Z,100426.19
2022-11-05T01:44:56.743Z,100436.13
2022-11-05T01:47:23.166Z,100434.25
2022-11-05T01:49:49.562Z,100433.19
2022-11-05T01:52:15.828Z,100438.81
2022-11-05T01:54:42.169Z,100428.31
2022-11-05T01:57:08.453Z,100446.06
2022-11-05T01:59:34.872Z,100448.75
2022-11-05T02:02:01.304Z,100448.16
2022-11-05T02:04:27.770Z,100450.63
2022-11-05T02:06:54.136Z,100456.00
2022-11-05T02:09:20.613Z,100456.84
2022-11-05T02:11:46.964Z,100460.59
2022-11-05T02:14:13.218Z,100459.75
2022-11-05T02:16:39.856Z,100461.38
2022-11-05T02:19:16.043Z,100472.16
2022-11-05T02:21:42.422Z,100469.44
2022-11-05T02:24:08.725Z,100470.06
2022-11-05T02:26:35.123Z,100472.50
2022-11-05T02:29:01.497Z,100478.91
2022-11-05T02:31:27.728Z,100480.81
2022-11-05T02:33:54.187Z,100479.97
2022-11-05T02:36:20.555Z,100479.16
2022-11-05T02:38:46.837Z,100488.50
2022-11-05T02:41:13.105Z,100478.81
2022-11-05T02:43:39.373Z,100491.44
2022-11-05T02:46:05.666Z,100490.41
2022-11-05T02:48:32.014Z,100499.03
2022-11-05T02:50:58.294Z,100495.78
2022-11-05T02:53:24.567Z,100500.94
2022-11-05T02:55:50.844Z,100500.09
2022-11-05T02:58:17.294Z,100501.97
2022-11-05T03:00:43.519Z,100499.50
2022-11-05T03:03:10.087Z,100507.34
2022-11-05T03:05:36.615Z,100512.16
2022-11-05T03:08:02.947Z,100519.16
2022-11-05T03:10:29.255Z,100523.25
2022-11-05T03:12:55.530Z,100528.06
2022-11-05T03:15:21.811Z,100531.78
2022-11-05T03:17:48.183Z,100538.19
2022-11-05T03:20:14.808Z,100543.56
2022-11-05T03:22:41.363Z,100541.94
2022-11-05T03:25:07.796Z,100546.25
2022-11-05T03:27:34.129Z,100548.16
2022-11-05T03:30:00.478Z,100541.94
2022-11-05T03:32:26.755Z,100543.78
2022-11-05T03:34:53.076Z,100548.16
2022-11-05T03:37:19.345Z,100544.63
2022-11-05T03:39:45.647Z,100558.06
2022-11-05T03:42:11.915Z,100554.31
2022-11-05T03:44:38.184Z,100566.97
2022-11-05T03:47:04.502Z,100571.53
2022-11-05T03:49:30.945Z,100586.59
2022-11-05T03:51:57.315Z,100586.59
2022-11-05T03:54:23.636Z,100587.09
2022-11-05T03:56:49.916Z,100588.47
2022-11-05T03:59:16.192Z,100592.19
2022-11-05T04:01:42.662Z,100595.16
2022-11-05T04:04:09.362Z,100598.88
2022-11-05T04:06:35.626Z,100598.88
2022-11-05T04:09:01.929Z,100599.47
2022-11-05T04:11:28.188Z,100603.22
2022-11-05T04:13:54.445Z,100601.09
2022-11-05T04:16:20.751Z,100599.69
2022-11-05T04:18:47.423Z,100601.56
2022-11-05T04:21:13.708Z,100598.88
2022-11-05T04:23:39.993Z,100598.63
2022-11-05T04:26:06.351Z,100611.28
2022-11-05T04:28:32.708Z,100607.53
2022-11-05T04:30:58.976Z,100605.91
2022-11-05T04:33:25.335Z,100606.94
2022-11-05T04:35:51.614Z,100609.84
2022-11-05T04:38:18.155Z,100616.06
2022-11-05T04:40:44.436Z,100616.06
2022-11-05T04:43:15.141Z,100620.38
2022-11-05T04:45:42.028Z,100615.00
2022-11-05T04:48:08.299Z,100621.44
2022-11-05T04:50:34.552Z,100618.97
2022-11-05T04:53:00.834Z,100626.25
2022-11-05T04:55:27.199Z,100629.50
2022-11-05T04:57:53.514Z,100630.81
2022-11-05T05:00:19.799Z,100623.56
2022-11-05T05:02:46.720Z,100635.13
2022-11-05T05:05:12.997Z,100631.63
2022-11-05T05:07:39.429Z,100639.81
2022-11-05T05:10:05.727Z,100636.75
2022-11-05T05:12:32.020Z,100641.31
2022-11-05T05:14:58.332Z,100647.75
2022-11-05T05:17:24.718Z,100649.75
2022-11-05T05:19:51.044Z,100650.78
2022-11-05T05:22:17.312Z,100653.13
2022-11-05T05:24:46.293Z,100658.53
2022-11-05T05:27:14.892Z,100664.47
2022-11-05T05:29:41.385Z,100668.44
2022-11-05T05:32:07.615Z,100671.34
2022-11-05T05:34:33.998Z,100674.88
2022-11-05T05:37:00.554Z,100675.09
2022-11-05T05:39:26.895Z,100680.03
2022-11-05T05:41:53.154Z,100686.66
2022-11-05T05:44:19.482Z,100684.81
2022-11-05T05:46:46.122Z,100692.03
2022-11-05T05:49:12.778Z,100700.94
2022-11-05T05:51:39.239Z,100696.00
2022-11-05T05:54:05.667Z,100704.91
2022-11-05T05:56:31.955Z,100709.84
2022-11-05T05:58:58.273Z,100709.84
2022-11-05T06:01:24.582Z,100713.81
2022-11-05T06:03:51.206Z,100719.31
2022-11-05T06:06:17.533Z,100731.56
2022-11-05T06:08:43.852Z,100735.91
2022-11-05T06:11:10.233Z,100733.66
2022-11-05T06:13:36.531Z,100732.63
2022-11-05T06:16:02.833Z,100737.63
2022-11-05T06:18:29.704Z,100735.78
2022-11-05T06:20:56.133Z,100739.03
2022-11-05T06:23:22.509Z,100735.91
2022-11-05T06:25:48.782Z,100736.34
2022-11-05T06:28:15.097Z,100740.69
2022-11-05T06:30:41.494Z,100751.69
2022-11-05T06:33:08.146Z,100746.09
2022-11-05T06:35:34.504Z,100756.44
2022-11-05T06:38:00.844Z,100762.44
2022-11-05T06:40:27.152Z,100762.78
2022-11-05T06:42:53.570Z,100765.34
2022-11-05T06:45:19.992Z,100760.81
2022-11-05T06:47:46.580Z,100768.88
2022-11-05T06:50:12.887Z,100772.97
2022-11-05T06:52:41.256Z,100780.66
2022-11-05T06:55:07.679Z,100774.47
2022-11-05T06:57:33.904Z,100795.75
2022-11-05T07:00:04.438Z,100794.72
2022-11-05T07:02:33.848Z,100801.72
2022-11-05T07:05:00.180Z,100807.94
2022-11-05T07:07:26.520Z,100809.22
2022-11-05T07:09:52.810Z,100813.16
2022-11-05T07:12:19.077Z,100814.19
2022-11-05T07:14:45.461Z,100819.56
2022-11-05T07:17:11.773Z,100819.56
2022-11-05T07:19:38.037Z,100823.09
2022-11-05T07:22:04.328Z,100824.38
2022-11-05T07:24:30.626Z,100823.91
2022-11-05T07:26:56.973Z,100827.06
2022-11-05T07:29:23.258Z,100830.94
2022-11-05T07:31:49.567Z,100828.47
2022-11-05T07:34:15.849Z,100834.06
2022-11-05T07:36:42.155Z,100834.91
2022-11-05T07:39:08.530Z,100858.50
2022-11-05T07:41:34.883Z,100846.94
2022-11-05T07:44:01.196Z,100862.81
2022-11-05T07:46:27.525Z,100868.91
2022-11-05T07:48:53.930Z,100874.06
2022-11-05T07:51:20.160Z,100880.72
2022-11-05T07:53:46.804Z,100871.81
2022-11-05T07:56:13.211Z,100880.22
2022-11-05T07:58:39.816Z,100882.91
2022-11-05T08:01:06.155Z,100872.16
2022-11-05T08:03:32.680Z,100874.06
2022-11-05T08:05:59.148Z,100877.19
2022-11-05T08:08:25.452Z,100873.84
2022-11-05T08:10:51.746Z,100883.75
2022-11-05T08:13:18.002Z,100882.56
2022-11-05T08:15:44.368Z,100883.41
2022-11-05T08:18:10.680Z,100883.97
2022-11-05T08:20:37.107Z,100872.03
2022-11-05T08:23:03.451Z,100874.28
2022-11-05T08:25:29.796Z,100879.03
2022-11-05T08:27:56.186Z,100889.00
2022-11-05T08:30:22.494Z,100894.38
2022-11-05T08:32:48.933Z,100904.28
2022-11-05T08:35:15.288Z,100903.22
2022-11-05T08:37:41.570Z,100901.16
2022-11-05T08:40:08.045Z,100906.53
2022-11-05T08:42:34.387Z,100908.16
2022-11-05T08:45:00.673Z,100911.53
2022-11-05T08:47:27.108Z,100917.16
2022-11-05T08:49:53.336Z,100911.53
2022-11-05T08:52:19.650Z,100919.00
2022-11-05T08:54:45.943Z,100918.56
2022-11-05T08:57:12.400Z,100923.94
2022-11-05T08:59:38.791Z,100927.44
2022-11-05T09:02:05.324Z,100917.72
2022-11-05T09:04:31.770Z,100921.25
2022-11-05T09:06:58.064Z,100935.06
2022-11-05T09:09:24.384Z,100935.50
2022-11-05T09:12:11.214Z,100932.81
2022-11-05T09:14:37.227Z,100936.56
2022-11-05T09:17:03.501Z,100936.56
2022-11-05T09:19:29.762Z,100939.59
2022-11-05T09:21:56.014Z,100940.06
2022-11-05T09:24:22.332Z,100933.28
2022-11-05T09:26:48.696Z,100936.09
2022-11-05T09:29:15.052Z,100934.22
2022-11-05T09:31:41.434Z,100947.91
2022-11-05T09:34:07.941Z,100953.28
2022-11-05T09:36:34.257Z,100958.06
2022-11-05T09:39:00.616Z,100963.44
2022-11-05T09:41:26.960Z,100959.09
2022-11-05T09:43:53.316Z,100957.00
2022-11-05T09:46:19.570Z,100964.50
2022-11-05T09:48:45.830Z,100957.47
2022-11-05T09:51:12.170Z,100967.19
2022-11-05T09:53:38.401Z,100972.34
2022-11-05T09:56:04.829Z,100976.03
2022-11-05T09:58:31.160Z,100977.94
2022-11-05T10:00:57.681Z,100982.25
2022-11-05T10:03:24.033Z,100986.81
2022-11-05T10:05:50.349Z,100993.22
2022-11-05T10:08:16.784Z,100994.66
2022-11-05T10:10:43.088Z,101006.22
2022-11-05T10:13:09.661Z,101004.81
2022-11-05T10:15:36.273Z,101010.19
2022-11-05T10:18:02.603Z,101006.88
2022-11-05T10:20:28.924Z,101008.31
2022-11-05T10:22:55.315Z,101002.72
2022-11-05T10:25:21.698Z,101001.06
2022-11-05T10:27:48.159Z,101009.13
2022-11-05T10:30:14.611Z,101010.78
2022-11-05T10:32:41.318Z,101017.81
2022-11-05T10:35:07.671Z,101025.50
2022-11-05T10:37:38.208Z,101023.63
2022-11-05T10:40:06.977Z,101024.22
2022-11-05T10:42:33.473Z,101026.53
2022-11-05T10:44:59.720Z,101025.50
2022-11-05T10:47:26.110Z,101036.03
2022-11-05T10:49:52.510Z,101042.44
2022-11-05T10:52:19.048Z,101040.19
2022-11-05T10:54:45.568Z,101039.22
2022-11-05T10:57:11.795Z,101038.84
2022-11-05T10:59:38.037Z,101032.88
2022-11-05T11:02:04.379Z,101038.25
2022-11-05T11:04:36.531Z,101041.09
2022-11-05T11:07:03.951Z,101035.78
2022-11-05T11:09:30.239Z,101051.69
2022-11-05T11:11:56.860Z,101049.00
2022-11-05T11:14:23.139Z,101058.09
2022-11-05T11:16:49.534Z,101057.34
2022-11-05T11:19:15.848Z,101061.00
2022-11-05T11:21:42.144Z,101055.63
2022-11-05T11:24:08.600Z,101063.69
2022-11-05T11:26:35.092Z,101058.56
2022-11-05T11:29:01.395Z,101058.56
2022-11-05T11:31:27.791Z,101062.03
2022-11-05T11:33:54.310Z,101061.63
2022-11-05T11:36:20.827Z,101053.97
2022-11-05T11:38:47.193Z,101068.25
2022-11-05T11:41:13.670Z,101068.84
2022-11-05T11:43:40.108Z,101061.72
2022-11-05T11:46:11.132Z,101060.28
2022-11-05T11:48:40.366Z,101061.13
2022-11-05T11:51:07.025Z,101054.47
2022-11-05T11:53:33.328Z,101052.84
2022-11-05T11:56:00.647Z,101053.84
2022-11-05T11:58:27.033Z,101056.47
2022-11-05T12:00:53.329Z,101053.00
2022-11-05T12:03:20.378Z,101063.53
2022-11-05T12:05:47.094Z,101055.22
2022-11-05T12:08:13.411Z,101052.91
2022-11-05T12:10:39.735Z,101056.97
2022-11-05T12:13:06.278Z,101059.66
2022-11-05T12:15:32.800Z,101054.06
2022-11-05T12:17:59.098Z,101053.38
2022-11-05T12:20:25.419Z,101046.97
2022-11-05T12:22:51.952Z,101054.41
2022-11-05T12:25:18.538Z,101052.91
2022-11-05T12:27:44.901Z,101052.63
2022-11-05T12:30:11.221Z,101052.75
2022-11-05T12:32:38.155Z,101058.69
2022-11-05T12:35:04.758Z,101067.94
2022-11-05T12:37:31.071Z,101065.97
2022-11-05T12:39:57.507Z,101069.66
2022-11-05T12:42:23.790Z,101064.84
2022-11-05T12:44:50.131Z,101072.88
2022-11-05T12:47:16.544Z,101081.53
2022-11-05T12:49:42.749Z,101075.78
2022-11-05T12:52:09.079Z,101081.16
2022-11-05T12:54:35.828Z,101076.97
2022-11-05T12:57:02.151Z,101078.53
2022-11-05T12:59:28.850Z,101084.19
2022-11-05T13:01:55.385Z,101091.81
2022-11-05T13:04:21.816Z,101086.34
2022-11-05T13:06:48.353Z,101089.03
2022-11-05T13:09:14.639Z,101083.56
2022-11-05T13:11:40.955Z,101090.16
2022-11-05T13:14:07.320Z,101094.28
2022-11-05T13:16:33.557Z,101089.72
2022-11-05T13:19:00.037Z,101091.72
2022-11-05T13:21:26.544Z,101085.06
2022-11-05T13:23:53.061Z,101088.56
2022-11-05T13:26:19.968Z,101086.72
2022-11-05T13:28:46.415Z,101091.84
2022-11-05T13:31:12.759Z,101080.28
2022-11-05T13:33:39.078Z,101081.91
2022-11-05T13:36:05.768Z,101072.88
2022-11-05T13:38:32.046Z,101084.50
2022-11-05T13:40:58.625Z,101085.47
2022-11-05T13:43:25.309Z,101095.19
2022-11-05T13:45:51.747Z,101088.72
2022-11-05T13:48:18.164Z,101091.81
2022-11-05T13:50:44.394Z,101099.81
2022-11-05T13:53:11.022Z,101092.06
2022-11-05T13:55:37.706Z,101097.34
2022-11-05T13:58:04.037Z,101099.16
2022-11-05T14:00:30.294Z,101099.72
2022-11-05T14:02:56.942Z,101099.25
2022-11-05T14:05:23.245Z,101109.56
2022-11-05T14:07:49.802Z,101112.25
2022-11-05T14:10:16.219Z,101109.09
2022-11-05T14:12:42.632Z,101112.41
2022-11-05T14:15:09.075Z,101112.41
2022-11-05T14:17:35.470Z,101114.63
2022-11-05T14:20:01.766Z,101119.00
2022-11-05T14:22:28.465Z,101114.41
2022-11-05T14:24:54.844Z,101119.34
2022-11-05T14:27:21.200Z,101124.72
2022-11-05T14:29:47.586Z,101126.13
2022-11-05T14:32:13.940Z,101124.28
2022-11-05T14:34:40.251Z,101121.31
2022-11-05T14:37:06.492Z,101127.78
2022-11-05T14:39:32.880Z,101139.75
2022-11-05T14:41:59.228Z,101133.53
2022-11-05T14:44:25.686Z,101139.75
2022-11-05T14:46:52.586Z,101140.56
2022-11-05T14:49:29.722Z,101142.78
2022-11-05T14:51:56.178Z,101142.78
2022-11-05T14:54:22.491Z,101142.78
2022-11-05T14:56:54.905Z,101146.66
2022-11-05T14:59:22.466Z,101145.63
2022-11-05T15:01:48.868Z,101146.44
2022-11-05T15:04:15.321Z,101142.69
2022-11-05T15:06:41.900Z,101149.13
2022-11-05T15:09:08.342Z,101142.69
2022-11-05T15:11:34.713Z,101155.38
2022-11-05T15:14:01.024Z,101143.16
2022-11-05T15:16:27.383Z,101147.50
2022-11-05T15:18:53.652Z,101159.13
2022-11-05T15:21:19.955Z,101156.66
2022-11-05T15:23:46.236Z,101157.22
2022-11-05T15:26:12.623Z,101161.00
2022-11-05T15:28:38.911Z,101161.00
2022-11-05T15:31:05.251Z,101158.88
2022-11-05T15:33:31.788Z,101157.03
2022-11-05T15:35:58.241Z,101153.47
2022-11-05T15:38:24.859Z,101154.53
2022-11-05T15:40:51.100Z,101152.91
2022-11-05T15:43:17.714Z,101159.94
2022-11-05T15:45:44.037Z,101164.53
2022-11-05T15:48:10.326Z,101164.53
2022-11-05T15:50:36.593Z,101164.75
2022-11-05T15:53:20.769Z,101165.53
2022-11-05T15:55:49.434Z,101172.84
2022-11-05T15:58:15.817Z,101172.00
2022-11-05T16:00:42.104Z,101170.16
2022-11-05T16:03:08.764Z,101178.47
2022-11-05T16:05:35.205Z,101169.31
2022-11-05T16:08:01.579Z,101172.00
2022-11-05T16:10:27.943Z,101183.03
2022-11-05T16:12:54.432Z,101185.50
2022-11-05T16:15:20.716Z,101186.34
2022-11-05T16:17:47.019Z,101188.41
2022-11-05T16:20:13.516Z,101186.66
2022-11-05T16:22:39.897Z,101190.25
2022-11-05T16:25:06.194Z,101185.34
2022-11-05T16:27:32.537Z,101189.56
2022-11-05T16:29:58.856Z,101202.22
2022-11-05T16:32:29.893Z,101190.38
2022-11-05T16:34:57.320Z,101189.56
2022-11-05T16:37:23.592Z,101191.19
2022-11-05T16:39:49.910Z,101200.34
2022-11-05T16:42:16.625Z,101197.44
2022-11-05T16:44:43.210Z,101198.22
2022-11-05T16:47:09.529Z,101202.81
2022-11-05T16:49:35.932Z,101208.22
2022-11-05T16:52:02.171Z,101211.50
2022-11-05T16:54:28.667Z,101200.69
2022-11-05T16:56:54.993Z,101212.31
2022-11-05T16:59:21.266Z,101214.53
2022-11-05T17:01:52.960Z,101217.00
2022-11-05T17:04:21.763Z,101223.38
2022-11-05T17:06:48.034Z,101216.69
2022-11-05T17:09:14.420Z,101229.25
2022-11-05T17:11:40.901Z,101231.97
2022-11-05T17:14:07.231Z,101232.13
2022-11-05T17:16:33.539Z,101235.41
2022-11-05T17:18:59.957Z,101238.94
2022-11-05T17:21:26.419Z,101242.19
2022-11-05T17:23:52.972Z,101246.31
2022-11-05T17:26:19.243Z,101251.03
2022-11-05T17:28:45.695Z,101252.44
2022-11-05T17:31:11.952Z,101258.19
2022-11-05T17:33:38.374Z,101258.78
2022-11-05T17:36:04.736Z,101260.44
2022-11-05T17:38:31.375Z,101269.72
2022-11-05T17:40:57.704Z,101271.34
2022-11-05T17:43:23.959Z,101273.59
2022-11-05T17:45:50.249Z,101274.78
2022-11-05T17:48:16.754Z,101276.78
2022-11-05T17:50:43.318Z,101276.31
2022-11-05T17:53:10.566Z,101277.72
2022-11-05T17:55:37.006Z,101278.91
2022-11-05T17:58:03.529Z,101283.28
2022-11-05T18:00:29.815Z,101280.91
2022-11-05T18:02:56.209Z,101278.94
2022-11-05T18:05:22.533Z,101282.44
2022-11-05T18:07:49.246Z,101285.75
2022-11-05T18:10:15.624Z,101287.97
2022-11-05T18:12:41.944Z,101296.91
2022-11-05T18:15:08.336Z,101290.66
2022-11-05T18:17:34.787Z,101293.13
2022-11-05T18:20:01.322Z,101294.78
2022-11-05T18:22:27.682Z,101284.81
2022-11-05T18:24:53.956Z,101288.09
2022-11-05T18:27:20.510Z,101293.84
2022-11-05T18:29:46.844Z,101288.19
2022-11-05T18:32:13.155Z,101297.97
2022-11-05T18:34:39.438Z,101298.75
2022-11-05T18:37:05.698Z,101306.88
2022-11-05T18:39:32.036Z,101297.47
2022-11-05T18:41:58.423Z,101294.19
2022-11-05T18:44:24.898Z,101301.47
2022-11-05T18:46:58.109Z,101302.06
2022-11-05T18:49:24.899Z,101295.59
2022-11-05T18:51:51.194Z,101295.84
2022-11-05T18:54:17.937Z,101297.25
2022-11-05T18:56:44.338Z,101303.72
2022-11-05T18:59:35.043Z,101307.00
2022-11-05T19:01:57.224Z,101311.59
2022-11-05T19:04:23.631Z,101310.50
2022-11-05T19:06:49.940Z,101302.41
2022-11-05T19:09:16.489Z,101314.06
2022-11-05T19:11:42.802Z,101304.06
2022-11-05T19:14:09.213Z,101307.81
2022-11-05T19:16:35.646Z,101299.47
2022-11-05T19:19:01.964Z,101294.91
2022-11-05T19:21:28.820Z,101301.13
2022-11-05T19:23:55.171Z,101294.91
2022-11-05T19:26:27.240Z,101298.41
2022-11-05T19:28:54.769Z,101300.31
2022-11-05T19:31:21.044Z,101294.91
2022-11-05T19:33:47.634Z,101301.72
2022-11-05T19:36:13.903Z,101306.28
2022-11-05T19:38:40.162Z,101304.44
2022-11-05T19:41:06.492Z,101302.53
2022-11-05T19:43:32.884Z,101309.59
2022-11-05T19:45:59.130Z,101310.63
2022-11-05T19:48:25.741Z,101323.09
2022-11-05T19:50:52.064Z,101319.56
2022-11-05T19:53:18.344Z,101314.75
2022-11-05T19:55:44.696Z,101322.72
2022-11-05T19:58:11.261Z,101313.56
2022-11-05T20:00:37.838Z,101315.00
2022-11-05T20:03:04.554Z,101321.22
2022-11-05T20:05:31.137Z,101322.84
2022-11-05T20:07:57.465Z,101322.84
2022-11-05T20:10:23.764Z,101329.91
2022-11-05T20:12:50.121Z,101335.06
2022-11-05T20:15:16.596Z,101331.56
2022-11-05T20:17:42.963Z,101337.75
2022-11-05T20:20:09.727Z,101334.25
2022-11-05T20:22:36.132Z,101334.50
2022-11-05T20:25:03.276Z,101336.34
2022-11-05T20:27:29.689Z,101340.72
2022-11-05T20:29:55.973Z,101349.63
2022-11-05T20:32:22.374Z,101353.97
2022-11-05T20:34:49.178Z,101356.09
2022-11-05T20:37:15.708Z,101352.81
2022-11-05T20:39:42.248Z,101345.53
2022-11-05T20:42:08.553Z,101350.94
2022-11-05T20:44:35.015Z,101347.66
2022-11-05T20:47:01.901Z,101343.28
2022-11-05T20:49:28.395Z,101344.34
2022-11-05T20:51:54.704Z,101341.06
2022-11-05T20:54:21.162Z,101341.88
2022-11-05T20:56:47.705Z,101342.13
2022-11-05T20:59:14.229Z,101346.91
2022-11-05T21:01:40.858Z,101349.03
2022-11-05T21:04:07.249Z,101350.06
2022-11-05T21:06:33.846Z,101348.44
2022-11-05T21:09:00.385Z,101358.66
2022-11-05T21:11:26.721Z,101354.28
2022-11-05T21:13:53.126Z,101360.53
2022-11-05T21:16:19.366Z,101363.47
2022-11-05T21:18:45.628Z,101359.13
2022-11-05T21:21:12.132Z,101361.69
2022-11-05T21:23:38.432Z,101363.22
2022-11-05T21:26:04.917Z,101367.44
2022-11-05T21:28:31.546Z,101365.63
2022-11-05T21:30:57.823Z,101365.41
2022-11-05T21:33:24.495Z,101369.16
2022-11-05T21:35:50.959Z,101367.53
2022-11-05T21:38:17.579Z,101373.97
2022-11-05T21:40:43.880Z,101367.75
2022-11-05T21:43:10.330Z,101363.63
2022-11-05T21:45:36.561Z,101368.81
2022-11-05T21:48:02.939Z,101365.97
2022-11-05T21:50:29.819Z,101366.78
2022-11-05T21:52:56.211Z,101364.31
2022-11-05T21:55:22.488Z,101353.75
2022-11-05T21:57:48.930Z,101352.72
2022-11-05T22:00:15.296Z,101345.91
2022-11-05T22:02:41.830Z,101346.94
2022-11-05T22:05:08.362Z,101348.59
2022-11-05T22:07:34.718Z,101346.13
2022-11-05T22:10:01.157Z,101345.28
2022-11-05T22:12:27.429Z,101358.78
2022-11-05T22:14:53.688Z,101356.53
2022-11-05T22:17:20.299Z,101353.59
2022-11-05T22:19:46.723Z,101360.28
2022-11-05T22:22:13.035Z,101360.28
2022-11-05T22:24:39.391Z,101363.84
2022-11-05T22:27:05.836Z,101358.66
2022-11-05T22:29:32.146Z,101352.41
2022-11-05T22:31:58.455Z,101348.09
2022-11-05T22:34:24.797Z,101347.25
2022-11-05T22:36:51.051Z,101355.34
2022-11-05T22:39:17.417Z,101348.31
2022-11-05T22:41:43.858Z,101342.09
2022-11-05T22:44:10.233Z,101352.06
2022-11-05T22:46:36.500Z,101352.06
2022-11-05T22:49:03.206Z,101355.22
2022-11-05T22:51:29.557Z,101355.22
2022-11-05T22:53:56.187Z,101358.38
2022-11-05T22:56:22.592Z,101368.72
2022-11-05T22:58:48.878Z,101366.84
2022-11-05T23:01:15.208Z,101360.63
2022-11-05T23:03:41.646Z,101366.84
2022-11-05T23:06:08.978Z,101357.91
2022-11-05T23:08:35.306Z,101362.28
2022-11-05T23:16:14.631Z,101361.09
2022-11-05T23:18:41.059Z,101362.13
2022-11-05T23:21:07.404Z,101363.78
2022-11-05T23:23:34.047Z,101366.22
2022-11-05T23:26:00.451Z,101365.66
2022-11-05T23:28:26.792Z,101364.00
2022-11-05T23:36:10.639Z,101351.47
2022-11-05T23:38:36.967Z,101348.38
2022-11-05T23:41:03.327Z,101347.53
2022-11-05T23:43:30.088Z,101348.94
2022-11-05T23:45:56.556Z,101345.44
2022-11-05T23:48:22.853Z,101351.66
2022-11-05T23:50:49.298Z,101350.22
2022-11-05T23:53:15.554Z,101346.47
2022-11-05T23:55:41.794Z,101347.53
2022-11-05T23:58:08.123Z,101354.78
